Gillette, WY

2:37 PM MDT on July 29, 2014 (GMT -0600)
RAWS ECHETA WY US (MECEW4) Elev 4396 ft | 44.47 °N, 105.84 °W | Change Station

Current weather conditions updated 46 minutes ago

Partly Cloudy
Partly Cloudy
72 °F
Feels Like 75 °F
N
8
Wind Variable Wind from SSW
Gusts 13.0 mph

Today is forecast to be Much Cooler than yesterday.

Today
High -- | Low -- °F
--% Chance of Precip.
Yesterday
High -- | Low -- °F
Precip. -- in
5:46 AM 8:31 PM
Waxing Crescent, 7% visible
Pressure 30.17 in
Visibility 10.0 miles
Clouds Few 12000 ft
Heat Index 75 °F
Dew Point 60 °F
Humidity 67%
Rainfall 0.15 in
Snow Depth Not available.
UV 10 out of 12
Pollen 6.30 out of 12
Air Quality Not available.
Flu Activity Not available.
METAR KGCC 291953Z AUTO 22010KT 10SM FEW120 20/16 A3029 RMK AO2 SLP214 T02000156

More Conditions Fewer Conditions

Pressure 30.17 in
Visibility 10.0 miles
Clouds Few 12000 ft
Heat Index 75 °F
Dew Point 60 °F
Humidity 67%
Rainfall 0.15 in
Snow Depth Not available.
UV 10 out of 12
Pollen 6.30 out of 12
Air Quality Not available.
Flu Activity Not available.
METAR KGCC 291953Z AUTO 22010KT 10SM FEW120 20/16 A3029 RMK AO2 SLP214 T02000156

More Conditions Fewer Conditions

10-Day Weather Forecast

Almanac

Astronomy

Jul. 29, 2014 Rise Set
Actual Time 5:46 AM MDT 8:31 PM MDT
Civil Twilight 5:12 AM MDT 9:05 PM MDT
Nautical Twilight 4:29 AM MDT 9:47 PM MDT
Astronomical Twilight 3:39 AM MDT 10:37 PM MDT
Moon 8:33 AM MDT 9:35 PM MDT
Length of Visible Light 15h 53m
Length of Day
14h 45m
Tomorrow will be 2m 17s shorter.
Waxing Crescent, 7% of the Moon is Illuminated
Today
Waxing Crescent
Aug 3
First Quarter
Aug 10
Full
Aug 17
Last Quarter
Aug 25
New

Today's Extremes

State Highs State Lows

Community

WunderPhotos

Upload Photos

1,738,851 photos uploaded!

Nearby

Snow Depth

Station Depth Elevation
Casper Mountain 0 in 7850 ft
Hobbs Park 0 in 10100 ft
Sand Lake 0 in 10050 ft
Big Sandy Opening 1 in 9080 ft
Gunsight Pass 0 in 9820 ft

Earthquake Activity

City Distance Mag. Time & Date
No recent earthquake activity has been reported nearby.
Minimum magnitude displayed is 2.5.

Coastal Water Temperatures

Place Temperature
No Stations Reporting

Nearby Weather Stations

Station Location Temp. Heat Index Dew Point Humidity Wind Precip. Elev Updated Type
RAWS ECHETA WY, Gillette, WY 72 °F 75 °F 60 °F 67% SSW  at  8 mph 0.00 in / hr 4396 ft 1:51 PM MDT MADIS

Show More Stations Show Fewer Stations